Time;durP1;ratioP1;P1;durP2;ratioP2;P2;SDS_P1;SDS_P2;PMS_P1;PMS_P2;Temp;Humidity;BMP_temperature;BMP_pressure;BME280_temperature;BME280_humidity;BME280_pressure;Samples;Min_cycle;Max_cycle;Signal;HPM_P1;HPM_P2
2023/05/31 00:02:17;;;;;;;0.98;0.90;;;21.30;69.80;;;;;;5001046;28;20566;-78
2023/05/31 00:04:42;;;;;;;1.25;1.10;;;21.30;69.80;;;;;;5003269;28;20414;-78
2023/05/31 00:07:08;;;;;;;1.02;1.02;;;21.30;69.70;;;;;;5001362;28;20067;-78
2023/05/31 00:09:33;;;;;;;0.90;0.90;;;21.30;69.60;;;;;;5000445;28;20042;-77
2023/05/31 00:11:59;;;;;;;1.10;1.00;;;21.30;69.60;;;;;;5000193;28;20412;-78
2023/05/31 00:14:25;;;;;;;1.00;1.00;;;21.30;69.50;;;;;;5000890;28;20133;-78
2023/05/31 00:16:51;;;;;;;0.77;0.77;;;21.30;69.50;;;;;;5002572;28;20503;-77
2023/05/31 00:19:16;;;;;;;0.90;0.90;;;21.30;69.60;;;;;;4998065;28;20041;-78
2023/05/31 00:21:44;;;;;;;1.08;1.00;;;21.30;69.60;;;;;;5001373;28;20454;-78
2023/05/31 00:24:10;;;;;;;1.85;1.17;;;21.30;69.50;;;;;;5002450;28;20045;-77
2023/05/31 00:26:35;;;;;;;1.05;1.00;;;21.30;69.50;;;;;;5015982;28;20057;-77
2023/05/31 00:29:01;;;;;;;0.98;0.98;;;21.30;69.40;;;;;;5004621;28;20053;-78
2023/05/31 00:31:26;;;;;;;1.10;1.10;;;21.30;69.40;;;;;;5003490;28;20129;-78
2023/05/31 00:33:52;;;;;;;1.13;1.02;;;21.30;69.40;;;;;;5000102;28;20042;-78
2023/05/31 00:36:17;;;;;;;1.10;1.10;;;21.30;69.50;;;;;;5008247;28;20038;-78
2023/05/31 00:38:43;;;;;;;1.17;1.10;;;21.20;69.40;;;;;;5006655;28;20496;-78
2023/05/31 00:41:09;;;;;;;1.02;1.00;;;21.30;69.40;;;;;;5001103;28;20116;-79
2023/05/31 00:43:35;;;;;;;0.70;0.70;;;21.30;69.70;;;;;;5007687;28;20045;-78
2023/05/31 00:46:01;;;;;;;1.17;1.08;;;21.20;69.40;;;;;;5004696;28;20034;-78
2023/05/31 00:48:26;;;;;;;0.80;0.80;;;21.30;69.50;;;;;;5002000;28;20069;-78
2023/05/31 00:50:52;;;;;;;1.30;1.02;;;21.20;69.40;;;;;;5004006;28;20034;-78
2023/05/31 00:53:18;;;;;;;1.92;1.13;;;21.30;69.40;;;;;;5006946;28;20551;-78
2023/05/31 00:55:43;;;;;;;0.82;0.82;;;21.20;69.30;;;;;;5004557;28;20434;-78
2023/05/31 00:58:09;;;;;;;1.00;1.00;;;21.30;69.40;;;;;;4997579;28;20051;-78
2023/05/31 01:00:35;;;;;;;0.77;0.77;;;21.20;69.40;;;;;;4998233;28;20049;-78
2023/05/31 01:03:02;;;;;;;0.95;0.95;;;21.20;69.40;;;;;;5002355;28;20053;-78
2023/05/31 01:05:28;;;;;;;0.82;0.82;;;21.20;69.30;;;;;;5004064;28;20031;-78
2023/05/31 01:07:53;;;;;;;0.90;0.90;;;21.20;69.30;;;;;;5005230;28;20034;-78
2023/05/31 01:10:19;;;;;;;1.00;0.98;;;21.30;69.50;;;;;;5002944;28;20042;-78
2023/05/31 01:13:18;;;;;;;1.15;1.10;;;21.20;69.40;;;;;;5004603;28;20539;-78
2023/05/31 01:15:46;;;;;;;0.80;0.80;;;21.20;69.40;;;;;;5001633;28;20053;-78
2023/05/31 01:18:25;;;;;;;0.82;0.82;;;21.20;69.40;;;;;;5005363;28;20052;-78
2023/05/31 01:20:51;;;;;;;1.13;1.02;;;21.30;69.40;;;;;;5014542;28;20054;-78
2023/05/31 01:23:51;;;;;;;0.90;0.90;;;21.20;69.30;;;;;;5019571;28;20026;-78
2023/05/31 01:26:32;;;;;;;0.95;0.95;;;21.20;69.30;;;;;;5003913;28;20510;-77
2023/05/31 01:29:03;;;;;;;0.90;0.85;;;21.30;69.50;;;;;;4990635;28;20104;-78
2023/05/31 01:31:30;;;;;;;0.93;0.93;;;21.20;69.40;;;;;;4988307;28;20054;-78
2023/05/31 01:33:56;;;;;;;0.90;0.90;;;21.20;69.50;;;;;;5003682;28;20038;-77
2023/05/31 01:36:21;;;;;;;0.93;0.93;;;21.20;69.40;;;;;;5005551;28;20384;-77
2023/05/31 01:38:47;;;;;;;0.70;0.70;;;21.20;69.40;;;;;;5005088;28;20037;-78
2023/05/31 01:41:13;;;;;;;1.58;1.25;;;21.20;69.40;;;;;;5007336;28;20526;-78
2023/05/31 01:43:40;;;;;;;1.08;0.90;;;21.20;69.80;;;;;;5001092;28;20093;-79
2023/05/31 01:46:06;;;;;;;0.90;0.90;;;21.20;69.40;;;;;;5001928;28;20404;-78
2023/05/31 01:48:31;;;;;;;0.88;0.88;;;21.20;69.40;;;;;;5001814;28;20041;-78
2023/05/31 01:50:58;;;;;;;1.00;0.90;;;21.20;70.30;;;;;;4999774;28;20752;-78
2023/05/31 01:53:23;;;;;;;0.85;0.85;;;21.20;69.40;;;;;;5005337;28;20471;-78
2023/05/31 01:55:49;;;;;;;1.27;1.17;;;21.20;69.40;;;;;;5019230;28;20530;-78
2023/05/31 01:58:14;;;;;;;0.90;0.90;;;21.20;69.30;;;;;;5006555;28;20045;-78
2023/05/31 02:00:40;;;;;;;0.60;0.60;;;21.20;69.40;;;;;;4989737;28;20044;-78
2023/05/31 02:03:06;;;;;;;0.80;0.80;;;21.20;69.40;;;;;;5002261;28;20045;-78
2023/05/31 02:05:31;;;;;;;0.88;0.88;;;21.20;69.50;;;;;;5004854;28;20048;-78
2023/05/31 02:07:57;;;;;;;1.10;1.10;;;21.20;69.40;;;;;;5020024;28;20077;-78
2023/05/31 02:10:23;;;;;;;0.82;0.82;;;21.20;69.40;;;;;;5003909;28;20046;-78
2023/05/31 02:12:53;;;;;;;0.93;0.93;;;21.20;69.40;;;;;;4987783;28;20093;-78
2023/05/31 02:15:19;;;;;;;1.30;0.80;;;21.20;69.30;;;;;;5004332;28;20046;-78
2023/05/31 02:17:45;;;;;;;0.70;0.70;;;21.20;69.20;;;;;;5019298;28;20049;-78
2023/05/31 02:20:13;;;;;;;1.77;1.30;;;21.20;69.20;;;;;;5006151;28;20045;-78
2023/05/31 02:22:42;;;;;;;0.90;0.90;;;21.20;69.10;;;;;;5005187;28;20044;-78
2023/05/31 02:25:11;;;;;;;1.08;1.08;;;21.20;69.30;;;;;;4985145;28;20096;-78
2023/05/31 02:27:37;;;;;;;0.90;0.90;;;21.10;69.20;;;;;;5002125;28;20034;-78
2023/05/31 02:30:07;;;;;;;1.00;0.88;;;21.20;69.30;;;;;;5001926;28;20054;-78
2023/05/31 02:32:35;;;;;;;0.80;0.80;;;21.20;69.20;;;;;;4987289;28;20058;-78
2023/05/31 02:35:04;;;;;;;0.90;0.90;;;21.20;69.50;;;;;;4990486;28;20068;-78
2023/05/31 02:37:30;;;;;;;0.70;0.70;;;21.20;69.10;;;;;;5004976;28;20054;-78
2023/05/31 02:39:56;;;;;;;0.75;0.75;;;21.20;69.20;;;;;;5002895;28;20531;-78
2023/05/31 02:42:22;;;;;;;0.88;0.88;;;21.10;69.20;;;;;;5014406;28;20064;-78
2023/05/31 02:44:47;;;;;;;1.15;1.15;;;21.10;69.10;;;;;;5005391;28;20095;-77
2023/05/31 02:47:13;;;;;;;0.82;0.82;;;21.10;69.10;;;;;;5003203;28;20044;-78
2023/05/31 02:49:39;;;;;;;1.00;1.00;;;21.10;69.00;;;;;;5000362;28;20076;-78
2023/05/31 02:52:05;;;;;;;0.70;0.70;;;21.10;69.00;;;;;;5004200;28;20127;-77
2023/05/31 02:54:30;;;;;;;0.77;0.77;;;21.10;69.00;;;;;;4999417;28;20069;-78
2023/05/31 02:56:56;;;;;;;1.08;1.08;;;21.10;69.00;;;;;;4989500;28;20527;-78
2023/05/31 02:59:23;;;;;;;1.00;1.00;;;21.10;69.00;;;;;;4989519;28;20054;-78
2023/05/31 03:01:48;;;;;;;1.17;1.08;;;21.10;69.00;;;;;;5003502;28;20034;-78
2023/05/31 03:04:14;;;;;;;0.80;0.80;;;21.10;68.90;;;;;;5002647;28;20076;-77
2023/05/31 03:06:40;;;;;;;0.80;0.80;;;21.10;68.80;;;;;;5003512;28;20117;-77
2023/05/31 03:09:06;;;;;;;0.70;0.70;;;21.10;68.80;;;;;;5001190;28;20074;-77
2023/05/31 03:11:32;;;;;;;0.80;0.80;;;21.10;68.90;;;;;;5000178;28;20457;-77
2023/05/31 03:13:57;;;;;;;1.38;1.05;;;21.10;68.90;;;;;;5016019;28;20511;-78
2023/05/31 03:16:24;;;;;;;1.10;1.08;;;21.10;68.90;;;;;;5018039;28;20038;-77
2023/05/31 03:18:50;;;;;;;0.68;0.68;;;21.10;68.90;;;;;;5003119;28;20116;-77
2023/05/31 03:21:16;;;;;;;0.95;0.95;;;21.10;68.90;;;;;;5000026;28;20183;-77
2023/05/31 03:23:42;;;;;;;0.98;0.98;;;21.10;68.80;;;;;;5002492;28;20054;-77
2023/05/31 03:26:07;;;;;;;0.60;0.60;;;21.10;69.00;;;;;;4999971;28;20042;-77
2023/05/31 03:28:33;;;;;;;0.73;0.73;;;21.10;68.90;;;;;;5002088;28;20034;-77
2023/05/31 03:30:58;;;;;;;1.00;1.00;;;21.10;68.80;;;;;;5001488;28;20141;-78
2023/05/31 03:33:24;;;;;;;0.88;0.88;;;21.00;68.80;;;;;;4999897;28;20425;-77
2023/05/31 03:35:49;;;;;;;0.80;0.80;;;21.10;68.80;;;;;;5002843;28;20068;-77
2023/05/31 03:38:15;;;;;;;0.85;0.85;;;21.10;68.80;;;;;;5016886;28;20412;-78
2023/05/31 03:40:40;;;;;;;0.90;0.90;;;21.10;68.80;;;;;;5004323;28;20057;-78
2023/05/31 03:43:06;;;;;;;0.95;0.95;;;21.10;68.80;;;;;;5016049;28;20121;-78
2023/05/31 03:45:32;;;;;;;1.00;1.00;;;21.10;68.70;;;;;;5002573;28;20050;-78
2023/05/31 03:47:57;;;;;;;1.10;1.00;;;21.10;68.80;;;;;;5000649;28;20121;-78
2023/05/31 03:50:23;;;;;;;1.00;1.00;;;21.10;68.80;;;;;;5003020;28;20054;-78
2023/05/31 03:52:48;;;;;;;0.70;0.70;;;21.00;68.70;;;;;;5005677;28;20081;-78
2023/05/31 03:55:14;;;;;;;0.88;0.88;;;21.00;68.60;;;;;;5001493;28;20051;-78
2023/05/31 03:57:40;;;;;;;1.10;1.10;;;21.00;68.60;;;;;;5000232;28;20073;-77
2023/05/31 04:00:06;;;;;;;0.88;0.88;;;21.00;68.60;;;;;;5002125;28;20132;-78
2023/05/31 04:02:32;;;;;;;0.77;0.77;;;21.00;68.70;;;;;;4998628;28;20042;-77
2023/05/31 04:04:57;;;;;;;0.80;0.80;;;21.00;68.60;;;;;;5005811;28;20125;-78
2023/05/31 04:07:23;;;;;;;0.80;0.80;;;21.00;68.60;;;;;;5000301;28;20041;-78
2023/05/31 04:09:48;;;;;;;0.90;0.90;;;21.00;68.60;;;;;;5012416;28;20046;-78
2023/05/31 04:12:14;;;;;;;0.80;0.80;;;21.00;68.60;;;;;;4995645;28;20046;-78
2023/05/31 04:14:39;;;;;;;0.73;0.73;;;21.00;68.40;;;;;;5000536;28;20034;-78
2023/05/31 04:17:05;;;;;;;0.80;0.80;;;21.00;68.40;;;;;;5000824;28;20046;-79
2023/05/31 04:19:31;;;;;;;0.90;0.90;;;21.00;68.60;;;;;;4997755;28;20141;-78
2023/05/31 04:21:56;;;;;;;1.05;1.05;;;21.00;68.60;;;;;;5001658;28;20045;-78
2023/05/31 04:24:22;;;;;;;1.23;1.13;;;21.00;68.60;;;;;;5000202;28;20129;-77
2023/05/31 04:26:48;;;;;;;7.43;6.63;;;21.00;68.30;;;;;;4998356;28;20457;-75
2023/05/31 04:29:13;;;;;;;10.10;7.75;;;19.60;61.20;;;;;;5010487;28;20050;-75
2023/05/31 04:31:39;;;;;;;8.32;7.45;;;18.50;64.20;;;;;;5001132;28;20423;-75
2023/05/31 04:34:05;;;;;;;7.60;6.90;;;17.80;66.70;;;;;;5002409;28;20547;-75
2023/05/31 04:36:32;;;;;;;8.68;6.85;;;17.40;68.10;;;;;;5000649;28;20034;-75
2023/05/31 04:38:58;;;;;;;7.80;7.10;;;17.20;69.00;;;;;;4996032;28;20042;-75
2023/05/31 04:41:25;;;;;;;8.77;7.97;;;17.00;69.60;;;;;;5003739;28;20030;-75
2023/05/31 04:43:53;;;;;;;7.65;7.05;;;17.00;69.80;;;;;;5001732;28;20038;-75
2023/05/31 04:46:21;;;;;;;8.88;7.55;;;16.90;70.10;;;;;;5000374;28;20046;-75
2023/05/31 04:48:49;;;;;;;8.40;7.65;;;16.80;70.30;;;;;;4997363;28;20041;-74
2023/05/31 04:51:18;;;;;;;8.52;7.70;;;16.90;70.20;;;;;;5001631;28;20057;-75
2023/05/31 04:53:47;;;;;;;9.75;8.35;;;16.70;70.60;;;;;;5016417;28;20677;-74
2023/05/31 04:56:13;;;;;;;9.65;8.20;;;16.60;71.00;;;;;;5004060;28;20045;-74
2023/05/31 04:58:39;;;;;;;8.63;7.70;;;16.60;71.10;;;;;;5001639;28;20046;-74
2023/05/31 05:01:06;;;;;;;8.82;8.07;;;16.50;71.30;;;;;;4996960;28;20053;-74
2023/05/31 05:03:32;;;;;;;10.07;9.05;;;16.40;71.70;;;;;;5001695;28;20046;-74
2023/05/31 05:06:15;;;;;;;9.05;8.15;;;16.50;71.80;;;;;;4996639;28;20046;-74
2023/05/31 05:08:42;;;;;;;9.60;8.63;;;16.40;71.70;;;;;;4998117;28;20456;-75
2023/05/31 05:11:07;;;;;;;8.63;7.93;;;16.40;72.00;;;;;;5003029;28;20065;-75
2023/05/31 05:13:33;;;;;;;9.10;8.15;;;16.40;71.90;;;;;;5000152;28;20504;-76
2023/05/31 05:15:59;;;;;;;11.32;8.75;;;16.50;71.70;;;;;;5005551;28;20065;-76
2023/05/31 05:18:25;;;;;;;8.90;7.95;;;16.50;71.70;;;;;;4998630;28;20069;-75
2023/05/31 05:20:51;;;;;;;9.02;8.23;;;16.50;71.60;;;;;;5004273;28;20045;-75
2023/05/31 05:23:16;;;;;;;8.60;7.72;;;16.40;71.60;;;;;;5008190;28;20045;-75
2023/05/31 05:25:42;;;;;;;9.27;8.10;;;16.40;72.10;;;;;;5005044;28;20041;-75
2023/05/31 05:28:07;;;;;;;9.30;8.35;;;16.30;72.50;;;;;;5003881;28;20064;-75
2023/05/31 05:30:33;;;;;;;9.63;8.63;;;16.30;72.60;;;;;;5005473;28;20058;-75
2023/05/31 05:32:58;;;;;;;9.32;7.80;;;16.20;72.80;;;;;;5006055;28;20054;-76
2023/05/31 05:35:24;;;;;;;8.88;7.97;;;16.20;73.20;;;;;;5001770;28;20508;-75
2023/05/31 05:37:50;;;;;;;9.30;8.38;;;16.10;73.60;;;;;;5021671;28;20049;-75
2023/05/31 05:40:16;;;;;;;10.40;9.07;;;16.00;73.50;;;;;;5004797;28;20070;-75
2023/05/31 05:42:41;;;;;;;9.52;8.65;;;16.20;73.20;;;;;;5002534;28;20034;-75
2023/05/31 05:45:08;;;;;;;10.73;9.30;;;16.10;73.00;;;;;;5001413;28;20053;-75
2023/05/31 05:47:34;;;;;;;9.60;8.75;;;16.10;73.10;;;;;;5017605;28;20061;-75
2023/05/31 05:50:00;;;;;;;9.35;8.57;;;16.00;73.10;;;;;;5002658;28;20049;-75
2023/05/31 05:52:26;;;;;;;10.82;9.73;;;16.10;73.20;;;;;;5001640;28;20046;-75
2023/05/31 05:54:51;;;;;;;10.27;9.27;;;16.10;73.60;;;;;;5004515;28;20096;-75
2023/05/31 05:57:18;;;;;;;9.65;8.85;;;16.10;73.50;;;;;;5002397;28;20034;-75
2023/05/31 05:59:44;;;;;;;10.15;9.02;;;16.10;73.60;;;;;;5000393;28;20085;-75
2023/05/31 06:02:10;;;;;;;12.57;9.23;;;16.10;73.90;;;;;;5001195;28;20046;-75
2023/05/31 06:04:36;;;;;;;9.18;8.48;;;16.10;73.60;;;;;;5018091;28;20050;-76
2023/05/31 06:07:02;;;;;;;9.27;8.57;;;16.10;73.80;;;;;;5005186;28;20038;-75
2023/05/31 06:09:27;;;;;;;10.07;9.05;;;16.10;73.80;;;;;;5003599;28;20073;-76
2023/05/31 06:11:53;;;;;;;10.77;9.65;;;16.10;74.40;;;;;;5002030;28;20046;-75
2023/05/31 06:14:18;;;;;;;10.18;9.27;;;16.00;73.90;;;;;;5003614;28;20042;-75
2023/05/31 06:16:44;;;;;;;9.68;8.73;;;16.00;74.10;;;;;;5005586;28;20080;-76
2023/05/31 06:19:10;;;;;;;14.43;9.35;;;16.10;73.70;;;;;;4985698;28;20057;-76
2023/05/31 06:21:35;;;;;;;8.95;8.20;;;16.10;74.60;;;;;;5008427;28;20116;-76
2023/05/31 06:24:02;;;;;;;10.95;9.10;;;16.00;74.10;;;;;;5001631;28;20185;-76
2023/05/31 06:26:28;;;;;;;8.98;8.18;;;16.10;73.90;;;;;;5003164;28;20501;-76
2023/05/31 06:28:53;;;;;;;10.10;9.10;;;16.20;73.70;;;;;;5005155;28;20507;-75
2023/05/31 06:31:19;;;;;;;8.88;8.18;;;16.10;74.00;;;;;;5004632;28;20597;-76
2023/05/31 06:33:44;;;;;;;10.40;9.48;;;16.10;74.10;;;;;;5002354;28;20052;-76
2023/05/31 06:36:10;;;;;;;10.25;9.30;;;16.10;74.60;;;;;;5003438;28;20514;-75
2023/05/31 06:38:36;;;;;;;10.43;9.43;;;16.10;74.80;;;;;;5002082;28;20538;-76
2023/05/31 06:41:01;;;;;;;10.43;9.43;;;16.10;73.80;;;;;;5000857;28;20035;-76
2023/05/31 06:43:27;;;;;;;9.93;9.02;;;16.10;74.10;;;;;;5017331;28;20065;-76
2023/05/31 06:45:52;;;;;;;8.88;8.13;;;16.30;74.50;;;;;;5000089;28;20049;-75
2023/05/31 06:48:18;;;;;;;9.40;8.50;;;16.30;73.90;;;;;;5001683;28;20077;-75
2023/05/31 06:50:44;;;;;;;10.10;8.80;;;16.20;74.20;;;;;;5002155;28;20041;-75
2023/05/31 06:53:12;;;;;;;9.70;8.70;;;16.20;74.50;;;;;;5002699;28;20092;-75
2023/05/31 06:55:38;;;;;;;12.38;9.38;;;16.20;74.20;;;;;;5005191;28;20045;-76
2023/05/31 06:58:04;;;;;;;9.32;8.50;;;16.20;74.40;;;;;;5000165;28;20042;-75
2023/05/31 07:00:29;;;;;;;11.02;9.65;;;16.20;73.80;;;;;;5000472;28;20050;-76
2023/05/31 07:02:55;;;;;;;10.30;9.43;;;16.30;75.00;;;;;;5003824;28;20045;-75
2023/05/31 07:05:21;;;;;;;10.10;8.88;;;16.30;74.00;;;;;;5002646;28;20081;-75
2023/05/31 07:07:47;;;;;;;9.50;8.60;;;16.40;73.90;;;;;;5000085;28;20519;-76
2023/05/31 07:10:12;;;;;;;9.55;8.60;;;16.40;73.80;;;;;;4998628;28;20046;-76
2023/05/31 07:12:38;;;;;;;8.23;7.43;;;16.40;73.80;;;;;;5001812;28;20053;-76
2023/05/31 07:15:04;;;;;;;10.10;9.10;;;16.70;73.40;;;;;;5002246;28;20423;-76
2023/05/31 07:17:30;;;;;;;8.18;6.90;;;17.00;72.20;;;;;;5000930;28;20046;-78
2023/05/31 07:19:56;;;;;;;7.53;6.82;;;17.30;71.10;;;;;;5005484;28;20100;-76
2023/05/31 07:22:22;;;;;;;7.82;7.00;;;17.40;70.90;;;;;;4997700;28;20034;-78
2023/05/31 07:24:47;;;;;;;8.20;7.40;;;17.50;70.50;;;;;;5000829;28;20728;-79
2023/05/31 07:27:13;;;;;;;8.23;7.43;;;17.60;70.30;;;;;;5002749;28;20182;-77
2023/05/31 07:29:39;;;;;;;8.15;7.45;;;17.70;70.20;;;;;;5004693;28;20474;-78
2023/05/31 07:32:05;;;;;;;6.70;6.28;;;17.80;69.60;;;;;;5003444;28;20046;-76
2023/05/31 07:34:31;;;;;;;7.68;7.10;;;17.80;69.40;;;;;;5017753;28;20053;-77
2023/05/31 07:36:57;;;;;;;7.40;6.80;;;17.80;69.40;;;;;;5003685;28;20042;-77
2023/05/31 07:39:22;;;;;;;9.05;6.63;;;17.80;69.40;;;;;;5000381;28;20128;-77
2023/05/31 07:41:48;;;;;;;7.53;6.85;;;17.70;69.60;;;;;;5003974;28;20511;-77
2023/05/31 07:44:16;;;;;;;7.15;6.60;;;17.90;69.40;;;;;;5002654;28;20136;-77
2023/05/31 07:46:42;;;;;;;7.20;6.68;;;17.90;69.40;;;;;;5019004;28;20139;-77
2023/05/31 07:49:08;;;;;;;6.95;6.45;;;17.90;69.60;;;;;;4986778;28;20061;-77
2023/05/31 07:51:33;;;;;;;6.38;5.88;;;18.00;68.70;;;;;;5002551;28;20081;-77
2023/05/31 07:53:59;;;;;;;6.25;5.75;;;17.90;69.00;;;;;;5005087;28;20056;-77
2023/05/31 07:56:25;;;;;;;6.93;6.43;;;18.10;68.80;;;;;;5000466;28;20038;-77
2023/05/31 07:58:50;;;;;;;6.70;6.22;;;18.20;68.50;;;;;;5004585;28;20034;-77
2023/05/31 08:01:16;;;;;;;6.90;6.40;;;18.30;68.30;;;;;;4983538;28;20422;-77
2023/05/31 08:03:41;;;;;;;6.75;6.25;;;18.30;68.20;;;;;;5013374;28;20038;-77
2023/05/31 08:06:07;;;;;;;6.68;6.07;;;18.40;67.90;;;;;;5000360;28;20049;-77
2023/05/31 08:08:33;;;;;;;7.10;6.50;;;18.40;68.70;;;;;;4999300;28;20415;-77
2023/05/31 08:11:00;;;;;;;7.35;6.70;;;18.40;68.80;;;;;;5014801;28;20046;-77
2023/05/31 08:13:26;;;;;;;6.43;5.93;;;18.50;69.00;;;;;;4999462;28;20130;-77
2023/05/31 08:15:52;;;;;;;6.65;6.05;;;18.50;68.70;;;;;;5004385;28;20049;-77
2023/05/31 08:18:18;;;;;;;6.75;6.15;;;18.50;68.70;;;;;;4999875;28;20069;-77
2023/05/31 08:20:43;;;;;;;6.18;5.78;;;18.50;68.40;;;;;;5001179;28;20054;-77
2023/05/31 08:23:10;;;;;;;6.15;5.65;;;18.70;68.10;;;;;;5001444;28;20415;-77
2023/05/31 08:25:40;;;;;;;6.93;6.32;;;18.60;68.10;;;;;;5015412;28;20137;-78
2023/05/31 08:28:06;;;;;;;5.63;5.13;;;18.60;68.20;;;;;;4999304;28;20046;-77
2023/05/31 08:30:31;;;;;;;5.90;5.50;;;18.60;67.80;;;;;;4998504;28;20045;-77
2023/05/31 08:32:57;;;;;;;5.55;5.05;;;18.60;68.10;;;;;;4998210;28;20042;-80
2023/05/31 08:35:23;;;;;;;6.35;5.47;;;18.50;67.90;;;;;;4999098;28;20069;-78
2023/05/31 08:37:48;;;;;;;5.07;4.68;;;18.60;68.40;;;;;;5002466;28;20507;-77
2023/05/31 08:40:14;;;;;;;5.00;4.20;;;18.60;69.40;;;;;;4999859;28;20046;-77
2023/05/31 08:42:47;;;;;;;5.32;4.82;;;18.60;68.30;;;;;;5002057;28;20133;-77
2023/05/31 08:45:12;;;;;;;4.72;4.45;;;18.70;68.10;;;;;;4998978;28;20550;-77
2023/05/31 08:47:39;;;;;;;5.57;5.18;;;18.80;67.90;;;;;;4997901;28;20097;-77
2023/05/31 08:50:05;;;;;;;4.70;4.40;;;18.90;68.00;;;;;;5014768;28;20041;-77
2023/05/31 08:52:31;;;;;;;4.28;3.97;;;18.90;68.00;;;;;;4985424;28;20423;-77
2023/05/31 08:54:57;;;;;;;4.28;4.07;;;19.00;68.10;;;;;;4999100;28;20037;-79
2023/05/31 08:57:22;;;;;;;4.47;4.10;;;19.00;68.00;;;;;;5016806;28;20053;-77
2023/05/31 08:59:48;;;;;;;5.28;4.20;;;19.10;68.00;;;;;;4988524;28;20121;-78
2023/05/31 09:02:13;;;;;;;3.97;3.72;;;19.20;68.10;;;;;;5011915;28;21440;-77
2023/05/31 09:04:39;;;;;;;4.15;3.85;;;19.20;68.00;;;;;;5002196;28;20392;-77
2023/05/31 09:07:05;;;;;;;3.53;3.38;;;19.20;68.20;;;;;;5002380;28;20034;-77
2023/05/31 09:09:30;;;;;;;3.90;3.70;;;19.20;68.20;;;;;;5017737;28;20455;-76
2023/05/31 09:11:56;;;;;;;5.05;3.45;;;19.20;68.90;;;;;;5000348;28;20089;-76
2023/05/31 09:14:23;;;;;;;3.67;3.47;;;19.30;68.00;;;;;;4999126;28;20029;-77
2023/05/31 09:16:50;;;;;;;3.60;3.40;;;19.30;67.80;;;;;;5002324;28;20147;-76
2023/05/31 09:19:15;;;;;;;3.55;3.35;;;19.30;67.80;;;;;;4999826;28;20033;-77
2023/05/31 09:21:42;;;;;;;3.40;3.20;;;19.30;67.80;;;;;;5016333;28;20068;-78
2023/05/31 09:24:08;;;;;;;3.97;3.60;;;19.30;67.60;;;;;;5006819;28;20037;-76
2023/05/31 09:26:33;;;;;;;3.67;3.38;;;19.30;67.50;;;;;;4998763;28;20423;-76
2023/05/31 09:28:59;;;;;;;3.22;3.00;;;19.40;67.60;;;;;;5003089;28;20080;-76
2023/05/31 09:31:25;;;;;;;3.50;3.30;;;19.40;67.50;;;;;;5002396;28;20041;-76
2023/05/31 09:33:51;;;;;;;3.40;3.10;;;19.40;67.70;;;;;;5002246;28;20111;-77
2023/05/31 09:36:32;;;;;;;3.25;3.05;;;19.40;67.50;;;;;;4987418;28;20037;-77
2023/05/31 09:39:04;;;;;;;4.63;3.25;;;19.40;67.30;;;;;;5004276;28;20037;-76
2023/05/31 09:41:30;;;;;;;3.78;3.33;;;19.50;67.60;;;;;;4986847;28;20125;-76
2023/05/31 09:43:56;;;;;;;2.97;2.83;;;19.50;67.50;;;;;;5001956;28;20049;-76
2023/05/31 09:46:22;;;;;;;3.60;3.40;;;19.50;67.40;;;;;;5000124;28;20038;-76
2023/05/31 09:49:01;;;;;;;2.42;2.33;;;19.50;67.50;;;;;;4987383;28;20034;-76
2023/05/31 09:51:27;;;;;;;3.13;2.92;;;19.60;67.50;;;;;;5012140;28;20030;-78
2023/05/31 09:53:55;;;;;;;3.30;3.00;;;19.60;67.30;;;;;;4988464;28;20037;-78
2023/05/31 09:56:22;;;;;;;3.45;3.22;;;19.60;67.60;;;;;;5000924;28;20053;-76
2023/05/31 09:58:48;;;;;;;3.10;2.90;;;19.60;67.40;;;;;;4992430;28;20034;-76
2023/05/31 10:01:14;;;;;;;3.03;2.92;;;19.60;67.50;;;;;;5004537;28;20068;-76
2023/05/31 10:03:40;;;;;;;2.72;2.53;;;19.60;67.40;;;;;;5004350;28;20080;-76
2023/05/31 10:06:06;;;;;;;2.83;2.72;;;19.60;67.30;;;;;;4989200;28;20046;-76
2023/05/31 10:08:32;;;;;;;2.83;2.63;;;19.70;67.30;;;;;;5002387;28;20499;-76
2023/05/31 10:11:01;;;;;;;2.72;2.55;;;19.70;67.30;;;;;;5007041;28;20038;-76
2023/05/31 10:13:27;;;;;;;2.60;2.40;;;19.70;67.30;;;;;;5018340;28;20085;-76
2023/05/31 10:15:54;;;;;;;3.30;2.97;;;19.70;67.20;;;;;;5002798;28;20049;-77
2023/05/31 10:18:21;;;;;;;3.13;2.90;;;19.80;67.40;;;;;;5001398;28;20046;-77
2023/05/31 10:20:52;;;;;;;3.30;3.10;;;19.80;67.20;;;;;;5004306;28;20030;-76
2023/05/31 10:23:23;;;;;;;2.90;2.70;;;19.80;67.10;;;;;;4297740;28;10000741;-77
2023/05/31 10:26:10;;;;;;;3.42;2.92;;;19.80;67.40;;;;;;5004893;28;20056;-77
2023/05/31 10:29:00;;;;;;;2.88;2.78;;;19.80;67.30;;;;;;5004760;28;20101;-78
2023/05/31 10:31:28;;;;;;;3.55;3.15;;;19.80;67.80;;;;;;4982103;28;20042;-78
2023/05/31 10:33:54;;;;;;;4.50;3.28;;;19.90;69.20;;;;;;5003586;28;20046;-78
2023/05/31 10:36:20;;;;;;;3.88;3.60;;;19.90;70.10;;;;;;4988454;28;20042;-77
2023/05/31 10:38:55;;;;;;;5.68;3.25;;;19.90;70.60;;;;;;4987028;28;20046;-79
2023/05/31 10:41:22;;;;;;;4.45;3.50;;;20.00;69.00;;;;;;4993070;28;20354;-77
2023/05/31 10:44:04;;;;;;;4.63;3.45;;;20.00;69.10;;;;;;5007006;28;20049;-79
2023/05/31 10:46:30;;;;;;;2.80;2.70;;;20.00;69.50;;;;;;5000216;28;20451;-76
2023/05/31 10:48:57;;;;;;;3.22;3.03;;;20.10;70.10;;;;;;5004033;28;20116;-77
2023/05/31 10:51:42;;;;;;;2.63;2.47;;;20.10;69.80;;;;;;5016164;28;20041;-76
2023/05/31 10:54:08;;;;;;;2.90;2.70;;;20.10;69.70;;;;;;5001935;28;20034;-75
2023/05/31 10:56:36;;;;;;;2.67;2.55;;;20.10;69.40;;;;;;5001801;28;20496;-76
2023/05/31 10:59:03;;;;;;;8.63;2.95;;;20.10;69.00;;;;;;5018212;28;22413;-76
2023/05/31 11:01:29;;;;;;;2.42;2.22;;;20.10;68.40;;;;;;5002460;28;20096;-76
2023/05/31 11:03:57;;;;;;;2.45;2.35;;;20.20;68.30;;;;;;5001742;28;20628;-76
2023/05/31 11:06:38;;;;;;;3.08;2.88;;;20.20;68.00;;;;;;5000462;28;20121;-76
2023/05/31 11:09:15;;;;;;;5.65;2.50;;;20.20;68.00;;;;;;5002375;28;20034;-75
2023/05/31 11:11:40;;;;;;;2.50;2.30;;;20.20;68.00;;;;;;5016086;28;20061;-76
2023/05/31 11:14:07;;;;;;;2.75;2.55;;;20.20;68.00;;;;;;5006201;28;20046;-76
2023/05/31 11:16:53;;;;;;;3.08;2.50;;;20.20;68.00;;;;;;5000529;28;20044;-78
2023/05/31 11:19:37;;;;;;;2.55;2.38;;;20.20;68.00;;;;;;4993417;28;20033;-78
2023/05/31 11:22:10;;;;;;;2.58;2.47;;;20.20;67.60;;;;;;5013510;28;20146;-79
2023/05/31 11:24:55;;;;;;;2.15;2.05;;;20.20;67.30;;;;;;5001886;28;20056;-79
2023/05/31 11:27:22;;;;;;;2.55;2.45;;;20.20;67.20;;;;;;4999162;28;20078;-78
2023/05/31 11:29:50;;;;;;;2.35;2.25;;;20.20;67.30;;;;;;4998247;28;20133;-78
2023/05/31 11:32:19;;;;;;;2.38;2.28;;;20.30;67.20;;;;;;5002869;28;20064;-79
2023/05/31 11:34:56;;;;;;;3.17;2.97;;;20.30;67.20;;;;;;5017462;28;20060;-78
2023/05/31 11:37:22;;;;;;;2.83;2.70;;;20.30;67.10;;;;;;5016788;28;20164;-78
2023/05/31 11:39:47;;;;;;;2.92;2.55;;;20.30;67.10;;;;;;5018629;28;20054;-79
2023/05/31 11:42:16;;;;;;;2.47;2.38;;;20.30;67.00;;;;;;5002196;28;20511;-78
2023/05/31 11:44:43;;;;;;;2.53;2.33;;;20.30;67.00;;;;;;5001858;28;20060;-79
2023/05/31 11:47:10;;;;;;;2.40;2.30;;;20.30;67.00;;;;;;5002548;28;20086;-79
2023/05/31 11:49:35;;;;;;;2.40;2.30;;;20.30;67.00;;;;;;5000196;28;20092;-79
2023/05/31 11:52:02;;;;;;;2.35;2.22;;;20.30;67.00;;;;;;5000324;28;20045;-79
2023/05/31 11:54:29;;;;;;;2.53;2.42;;;20.40;67.10;;;;;;5016549;28;20034;-79
2023/05/31 11:56:59;;;;;;;2.53;2.42;;;20.40;67.10;;;;;;5002498;28;20050;-79
2023/05/31 11:59:27;;;;;;;2.45;2.35;;;20.40;66.90;;;;;;4994923;28;20050;-78
2023/05/31 12:01:56;;;;;;;2.67;2.58;;;20.40;66.70;;;;;;5007283;28;20049;-79
2023/05/31 12:04:21;;;;;;;3.17;2.55;;;20.40;66.80;;;;;;5002010;28;20031;-76
2023/05/31 12:06:47;;;;;;;2.47;2.35;;;20.50;66.70;;;;;;4995160;28;20298;-78
2023/05/31 12:09:13;;;;;;;2.58;2.38;;;20.50;66.40;;;;;;5009064;28;20038;-79
2023/05/31 12:11:38;;;;;;;2.55;2.40;;;20.50;66.60;;;;;;4998045;28;20141;-79
2023/05/31 12:14:04;;;;;;;2.30;2.20;;;20.50;66.40;;;;;;5001618;28;20517;-81
2023/05/31 12:16:29;;;;;;;2.80;2.60;;;20.50;66.30;;;;;;5015188;28;20042;-78
2023/05/31 12:18:55;;;;;;;2.42;2.28;;;20.50;66.10;;;;;;5001503;28;20053;-77
2023/05/31 12:21:21;;;;;;;3.20;2.47;;;20.50;66.20;;;;;;4999251;28;20148;-79
2023/05/31 12:24:12;;;;;;;2.40;2.30;;;20.50;66.30;;;;;;4994921;28;20187;-78
2023/05/31 12:26:38;;;;;;;2.15;2.05;;;20.50;66.30;;;;;;4996481;28;20062;-77
2023/05/31 12:29:04;;;;;;;4.40;2.90;;;20.60;66.30;;;;;;5004378;28;20407;-77
2023/05/31 12:31:32;;;;;;;2.30;2.20;;;20.60;66.30;;;;;;4998301;28;20047;-78
2023/05/31 12:34:01;;;;;;;2.53;2.30;;;20.70;66.50;;;;;;5002647;28;20443;-78
2023/05/31 12:36:27;;;;;;;2.42;2.22;;;20.60;66.40;;;;;;4992158;28;20041;-78
2023/05/31 12:38:55;;;;;;;2.20;2.10;;;20.60;66.40;;;;;;5000345;28;20045;-77
2023/05/31 12:41:22;;;;;;;2.20;2.10;;;20.60;66.20;;;;;;5020488;28;20044;-76
2023/05/31 12:43:48;;;;;;;2.38;2.28;;;20.60;66.00;;;;;;5003203;28;20512;-77
2023/05/31 12:46:17;;;;;;;2.83;2.72;;;20.70;66.10;;;;;;4989111;28;20116;-77